TimeCDT,TemperatureF,Dew PointF,Humidity,Sea Level PressureIn,VisibilityMPH,Wind Direction,Wind SpeedMPH,Gust SpeedMPH,PrecipitationIn,Events,Conditions,WindDirDegrees,DateUTC
12:56 AM,55.9,45.0,67,30.00,10.0,SSW,4.6,-,N/A,,Clear,210,2013-03-17 05:56:00
1:56 AM,54.9,45.9,72,30.00,10.0,SSW,8.1,-,N/A,,Clear,200,2013-03-17 06:56:00
2:56 AM,55.9,46.9,72,30.00,10.0,SSW,10.4,-,N/A,,Clear,200,2013-03-17 07:56:00
3:56 AM,54.9,46.9,75,29.99,10.0,SSW,10.4,-,N/A,,Clear,210,2013-03-17 08:56:00
4:56 AM,52.0,46.9,83,29.99,10.0,SSW,6.9,-,N/A,,Clear,210,2013-03-17 09:56:00
5:56 AM,50.9,47.8,89,30.01,10.0,SSW,6.9,-,N/A,,Clear,200,2013-03-17 10:56:00
6:56 AM,50.0,47.8,92,30.02,10.0,South,6.9,-,N/A,,Clear,190,2013-03-17 11:56:00
8:56 AM,56.8,50.9,80,30.04,10.0,SW,8.1,16.1,N/A,,Clear,220,2013-03-17 13:56:00
9:56 AM,59.9,52.9,78,30.04,10.0,WSW,11.5,-,N/A,,Clear,250,2013-03-17 14:56:00
10:56 AM,64.9,52.9,65,30.03,10.0,West,12.7,-,N/A,,Scattered Clouds,260,2013-03-17 15:56:00
11:56 AM,65.8,50.0,57,30.01,10.0,SSW,12.7,20.7,N/A,,Partly Cloudy,200,2013-03-17 16:56:00
12:56 PM,66.9,50.0,54,29.99,10.0,SSW,12.7,-,N/A,,Clear,210,2013-03-17 17:56:00
1:56 PM,68.9,48.9,49,29.97,10.0,SSW,13.8,17.3,N/A,,Partly Cloudy,200,2013-03-17 18:56:00
2:56 PM,70.0,47.8,45,29.95,10.0,SSW,17.3,23.0,N/A,,Clear,200,2013-03-17 19:56:00
3:56 PM,68.9,50.0,51,29.93,10.0,SSE,12.7,-,N/A,,Partly Cloudy,160,2013-03-17 20:56:00
4:56 PM,68.0,50.0,52,29.92,10.0,South,16.1,23.0,N/A,,Partly Cloudy,190,2013-03-17 21:56:00
5:56 PM,66.9,50.0,54,29.91,10.0,South,12.7,-,N/A,,Clear,180,2013-03-17 22:56:00
6:56 PM,63.9,50.0,61,29.91,10.0,SSE,4.6,-,N/A,,Clear,150,2013-03-17 23:56:00
7:56 PM,61.0,50.0,67,29.91,10.0,SE,5.8,-,N/A,,Clear,140,2013-03-18 00:56:00
8:56 PM,61.0,50.9,69,29.92,10.0,SSE,6.9,-,N/A,,Clear,160,2013-03-18 01:56:00
9:56 PM,61.9,52.0,70,29.92,10.0,SSE,11.5,-,N/A,,Overcast,160,2013-03-18 02:56:00
10:56 PM,61.9,54.0,75,29.91,10.0,SSE,9.2,-,N/A,,Mostly Cloudy,150,2013-03-18 03:56:00
11:56 PM,61.9,54.9,78,29.90,10.0,South,11.5,-,N/A,,Overcast,170,2013-03-18 04:56:00